Terminal Aerodrome Forecast
Issued by NWS Huntsville, AL

Home | Current Version | Previous Version | Text Only | Print | Product List | Glossary On
Versions: 1 2 3 4 5 6 7 8 9 10 11 12 13 14 15 16 17 18 19 20 21 22 23 24 25 26 27 28 29 30 31 32
000
FTUS44 KHUN 182350 CCA
TAFMSL
TAF COR
KMSL 182350Z 1900/1924 19010G17KT P6SM -RA VCTS SCT040CB OVC100
      TEMPO 1900/1902 VRB15G25KT 2SM TSRA BR OVC025CB
     FM190200 22015G22KT 6SM -RA OVC025
      TEMPO 1902/1904 5SM -TSRA BR OVC020CB
     FM190500 28010G15KT P6SM VCSH OVC015
     FM191200 30012G17KT P6SM VCSH OVC010=

USA.gov is the U.S. government's official web portal to all federal, state and local government web resources and services.